Clarksville, MO

9:26 AM CST on March 02, 2015 (GMT -0600)
N0YWD | Change Station
CLOSE
Current Station
Personal Weather Station
Location: Louisiana, MO
Elevation: 525 ft
Nearby Weather Stations

Elev 525 ft 39.44 °N, 91.06 °W | Updated 1 minute ago

Partly Cloudy
Partly Cloudy
25.7 °F
Feels Like 26 °F
N
1.0
Wind Variable Wind from ESE
Gusts 3.0 mph

Today
High -- | Low -- °F
--% Chance of Precip.
Yesterday
High -- | Low -- °F
Precip. -- in
6:35 AM 5:56 PM
Waxing Gibbous, 91% visible
Pressure 30.56 in
Visibility 7.0 miles
Clouds Clear
Windchill 26 °F
Dew Point 19 °F
Humidity 74%
Rainfall 0.00 in
Snow Depth Not available.
UV 3 out of 12
Pollen .40 out of 12
Air Quality Not available.
Flu Activity Not available.
METAR KPPQ 021515Z AUTO 27003KT 7SM CLR M05/M07 A3056 RMK AO2 T10541069

More Conditions Fewer Conditions

Pressure 30.56 in
Visibility 7.0 miles
Clouds Clear
Windchill 26 °F
Dew Point 19 °F
Humidity 74%
Rainfall 0.00 in
Snow Depth Not available.
UV 3 out of 12
Pollen .40 out of 12
Air Quality Not available.
Flu Activity Not available.
METAR KPPQ 021515Z AUTO 27003KT 7SM CLR M05/M07 A3056 RMK AO2 T10541069

More Conditions Fewer Conditions

10-Day Weather Forecast

Almanac

Astronomy

Mar. 02, 2015 Rise Set
Actual Time
Civil Twilight
Nautical Twilight
Astronomical Twilight
Moon
Length of Visible Light
Length of Day
Tomorrow will be .
, % of the Moon is Illuminated

Today's Extremes

State Highs State Lows

Community

WunderPhotos

Upload Photos

1,801,811 photos uploaded!

WunderBlogs® & News

Nearby

Air Quality

  Air Quality AQ Index Pollutant
Not available.

Snow Depth

Station Depth Elevation

Earthquake Activity

City Distance Mag. Time & Date
Minimum magnitude displayed is 2.5.

Coastal Water Temperatures

Place Temperature

Nearby Weather Stations